Time;durP1;ratioP1;P1;durP2;ratioP2;P2;SDS_P1;SDS_P2;PMS_P1;PMS_P2;Temp;Humidity;BMP_temperature;BMP_pressure;BME280_temperature;BME280_humidity;BME280_pressure;Samples;Min_cycle;Max_cycle;Signal;HPM_P1;HPM_P2
2022/08/18 00:02:17;;;;;;;17.08;7.45;;;;;;;;;;5035235;28;20041;-78
2022/08/18 00:04:44;;;;;;;19.02;9.30;;;;;;;;;;5035667;28;20068;-78
2022/08/18 00:07:21;;;;;;;19.55;9.77;;;;;;;;;;5051322;28;20120;-78
2022/08/18 00:09:47;;;;;;;19.85;10.85;;;;;;;;;;5051686;28;20044;-78
2022/08/18 00:12:18;;;;;;;22.67;10.00;;;;;;;;;;5051145;28;20501;-78
2022/08/18 00:14:45;;;;;;;19.77;9.73;;;;;;;;;;5051334;28;20063;-78
2022/08/18 00:17:11;;;;;;;25.88;10.82;;;;;;;;;;5034574;28;20457;-78
2022/08/18 00:19:37;;;;;;;26.83;11.15;;;;;;;;;;5035122;28;20029;-78
2022/08/18 00:22:03;;;;;;;21.95;11.15;;;;;;;;;;5051491;28;20049;-78
2022/08/18 00:24:30;;;;;;;19.75;10.98;;;;;;;;;;5051044;28;20041;-78
2022/08/18 00:26:56;;;;;;;23.55;11.40;;;;;;;;;;5050899;28;20048;-78
2022/08/18 00:29:23;;;;;;;22.58;10.90;;;;;;;;;;5050937;28;20548;-78
2022/08/18 00:31:49;;;;;;;19.85;10.65;;;;;;;;;;5051324;28;20052;-78
2022/08/18 00:34:15;;;;;;;23.83;9.90;;;;;;;;;;5051236;28;20040;-78
2022/08/18 00:36:42;;;;;;;40.60;12.07;;;;;;;;;;5050713;28;20094;-78
2022/08/18 00:39:08;;;;;;;29.48;11.73;;;;;;;;;;5050894;28;20045;-78
2022/08/18 00:41:34;;;;;;;18.42;10.70;;;;;;;;;;5050638;28;20076;-78
2022/08/18 00:44:03;;;;;;;28.23;11.63;;;;;;;;;;5034677;28;20106;-78
2022/08/18 00:46:32;;;;;;;25.17;10.43;;;;;;;;;;5034039;28;20045;-78
2022/08/18 00:48:59;;;;;;;18.30;8.85;;;;;;;;;;5034483;28;20052;-78
2022/08/18 00:51:39;;;;;;;16.25;8.77;;;;;;;;;;5034012;28;20128;-78
2022/08/18 00:54:13;;;;;;;21.35;10.35;;;;;;;;;;5051207;28;20041;-78
2022/08/18 00:56:51;;;;;;;23.80;10.18;;;;;;;;;;5050665;28;20047;-78
2022/08/18 00:59:26;;;;;;;22.30;9.65;;;;;;;;;;5046983;28;20039;-78
2022/08/18 01:01:54;;;;;;;19.70;9.35;;;;;;;;;;5046541;28;20069;-78
2022/08/18 01:04:31;;;;;;;19.02;10.52;;;;;;;;;;5050993;28;20053;-78
2022/08/18 01:06:59;;;;;;;21.48;10.80;;;;;;;;;;5034543;28;20493;-78
2022/08/18 01:09:26;;;;;;;28.33;10.70;;;;;;;;;;5050580;28;20056;-78
2022/08/18 01:11:52;;;;;;;22.75;9.23;;;;;;;;;;5044208;28;20081;-78
2022/08/18 01:14:19;;;;;;;14.95;9.50;;;;;;;;;;5050994;28;20048;-78
2022/08/18 01:22:18;;;;;;;25.70;12.10;;;;;;;;;;5043489;28;20045;-78
2022/08/18 01:27:30;;;;;;;18.92;10.15;;;;;;;;;;5054395;28;20508;-78
2022/08/18 01:29:57;;;;;;;23.73;10.10;;;;;;;;;;5052905;28;20052;-78
2022/08/18 01:32:24;;;;;;;20.77;10.50;;;;;;;;;;5037473;28;20498;-78
2022/08/18 01:34:51;;;;;;;19.40;10.23;;;;;;;;;;5054406;28;20593;-78
2022/08/18 01:37:19;;;;;;;21.35;9.23;;;;;;;;;;5037989;28;20497;-78
2022/08/18 01:39:45;;;;;;;17.10;9.38;;;;;;;;;;5053822;28;20444;-78
2022/08/18 01:42:13;;;;;;;22.23;10.70;;;;;;;;;;5037808;28;20090;-78
2022/08/18 01:44:40;;;;;;;24.20;11.77;;;;;;;;;;5053885;28;20041;-78
2022/08/18 01:47:07;;;;;;;20.73;11.05;;;;;;;;;;5054252;28;20052;-78
2022/08/18 01:49:33;;;;;;;28.40;11.75;;;;;;;;;;5053786;28;20079;-78
2022/08/18 01:51:59;;;;;;;20.55;9.77;;;;;;;;;;5042130;28;20493;-78
2022/08/18 01:54:28;;;;;;;22.83;11.30;;;;;;;;;;5054617;28;20485;-78
2022/08/18 01:56:55;;;;;;;17.50;11.57;;;;;;;;;;5037549;28;20073;-78
2022/08/18 01:59:21;;;;;;;22.50;11.32;;;;;;;;;;5053849;28;20588;-78
2022/08/18 02:01:47;;;;;;;22.90;11.43;;;;;;;;;;5048179;28;20132;-77
2022/08/18 02:04:15;;;;;;;23.38;12.00;;;;;;;;;;5048635;28;20045;-78
2022/08/18 02:06:41;;;;;;;26.05;11.82;;;;;;;;;;5035724;28;20120;-78
2022/08/18 02:09:07;;;;;;;27.48;11.13;;;;;;;;;;5031787;28;20047;-78
2022/08/18 02:11:34;;;;;;;24.33;12.15;;;;;;;;;;5045209;28;20053;-78
2022/08/18 02:14:00;;;;;;;22.13;10.45;;;;;;;;;;5049558;28;20478;-78
2022/08/18 02:16:26;;;;;;;20.85;10.77;;;;;;;;;;5036167;28;20110;-78
2022/08/18 02:18:52;;;;;;;15.13;9.68;;;;;;;;;;5053440;28;20041;-78
2022/08/18 02:21:20;;;;;;;20.90;9.68;;;;;;;;;;5053513;28;20049;-78
2022/08/18 02:23:47;;;;;;;15.80;8.32;;;;;;;;;;5036529;28;20104;-78
2022/08/18 02:26:14;;;;;;;22.48;11.77;;;;;;;;;;5054143;28;20547;-78
2022/08/18 02:28:41;;;;;;;25.85;10.18;;;;;;;;;;5066589;28;20071;-78
2022/08/18 02:31:11;;;;;;;17.23;10.20;;;;;;;;;;5045705;28;20044;-78
2022/08/18 02:33:37;;;;;;;20.17;11.05;;;;;;;;;;5052346;28;20481;-78
2022/08/18 02:36:05;;;;;;;23.30;10.63;;;;;;;;;;5053570;28;20041;-78
2022/08/18 02:38:32;;;;;;;20.25;10.48;;;;;;;;;;5053941;28;20469;-78
2022/08/18 02:40:59;;;;;;;26.92;11.55;;;;;;;;;;5036689;28;20504;-78
2022/08/18 02:43:25;;;;;;;21.05;10.10;;;;;;;;;;5053150;28;20041;-78
2022/08/18 02:45:52;;;;;;;16.73;9.40;;;;;;;;;;5053005;28;20049;-78
2022/08/18 02:48:51;;;;;;;22.10;10.60;;;;;;;;;;5036872;28;20563;-78
2022/08/18 02:51:11;;;;;;;16.13;10.48;;;;;;;;;;5048097;28;20045;-78
2022/08/18 02:53:39;;;;;;;28.77;11.82;;;;;;;;;;5052691;28;20393;-78
2022/08/18 02:56:27;;;;;;;23.77;11.60;;;;;;;;;;5035958;28;20033;-78
2022/08/18 02:59:13;;;;;;;24.70;12.27;;;;;;;;;;5052650;28;20052;-78
2022/08/18 03:01:40;;;;;;;21.55;11.15;;;;;;;;;;5069213;28;20090;-78
2022/08/18 03:04:07;;;;;;;24.13;12.05;;;;;;;;;;5052363;28;20049;-78
2022/08/18 03:06:35;;;;;;;22.25;10.90;;;;;;;;;;5052793;28;20124;-78
2022/08/18 03:09:01;;;;;;;23.50;12.13;;;;;;;;;;5035590;28;20075;-78
2022/08/18 03:11:28;;;;;;;20.30;10.85;;;;;;;;;;5036211;28;20044;-78
2022/08/18 03:13:55;;;;;;;22.70;11.40;;;;;;;;;;5052252;28;20041;-78
2022/08/18 03:16:23;;;;;;;18.15;11.55;;;;;;;;;;5052557;28;20044;-78
2022/08/18 03:18:50;;;;;;;22.38;11.63;;;;;;;;;;5052333;28;20063;-78
2022/08/18 03:21:21;;;;;;;18.90;12.00;;;;;;;;;;5052771;28;20047;-78
2022/08/18 03:23:47;;;;;;;22.65;12.15;;;;;;;;;;5051975;28;20037;-78
2022/08/18 03:26:14;;;;;;;22.55;12.48;;;;;;;;;;5046064;28;20410;-78
2022/08/18 03:28:42;;;;;;;20.90;13.00;;;;;;;;;;5036034;28;20044;-78
2022/08/18 03:31:08;;;;;;;19.63;12.55;;;;;;;;;;5051847;28;20114;-78
2022/08/18 03:33:34;;;;;;;22.35;13.30;;;;;;;;;;5052691;28;20029;-78
2022/08/18 03:36:05;;;;;;;25.05;13.13;;;;;;;;;;5051306;28;20099;-78
2022/08/18 03:38:31;;;;;;;23.17;13.98;;;;;;;;;;5035711;28;20028;-78
2022/08/18 03:40:57;;;;;;;29.88;15.10;;;;;;;;;;5051860;28;20045;-78
2022/08/18 03:43:23;;;;;;;24.77;16.35;;;;;;;;;;5044856;28;20052;-78
2022/08/18 03:45:49;;;;;;;26.73;16.58;;;;;;;;;;5034987;28;20099;-78
2022/08/18 03:48:16;;;;;;;30.58;17.85;;;;;;;;;;5035005;28;20053;-78
2022/08/18 03:50:45;;;;;;;26.50;18.02;;;;;;;;;;5051788;28;20045;-78
2022/08/18 03:53:11;;;;;;;29.77;20.00;;;;;;;;;;5051606;28;20045;-78
2022/08/18 03:55:40;;;;;;;28.27;18.73;;;;;;;;;;5050914;28;20040;-77
2022/08/18 03:58:06;;;;;;;33.00;19.25;;;;;;;;;;5050406;28;20490;-77
2022/08/18 04:00:32;;;;;;;29.05;17.73;;;;;;;;;;5033682;28;20065;-78
2022/08/18 04:03:01;;;;;;;27.55;18.23;;;;;;;;;;5048260;28;20044;-78
2022/08/18 04:05:28;;;;;;;29.83;19.00;;;;;;;;;;5045880;28;20125;-78
2022/08/18 04:07:55;;;;;;;32.75;19.35;;;;;;;;;;5048447;28;20072;-78
2022/08/18 04:10:22;;;;;;;28.20;18.67;;;;;;;;;;5044733;28;20448;-78
2022/08/18 04:12:48;;;;;;;29.58;18.70;;;;;;;;;;5045746;28;20845;-77
2022/08/18 04:15:14;;;;;;;29.58;18.90;;;;;;;;;;5045622;28;20040;-77
2022/08/18 04:17:40;;;;;;;31.08;19.02;;;;;;;;;;5045813;28;20060;-77
2022/08/18 04:20:06;;;;;;;26.15;18.55;;;;;;;;;;5045316;28;20032;-77
2022/08/18 04:22:33;;;;;;;24.77;17.92;;;;;;;;;;5041618;28;20037;-77
2022/08/18 04:25:00;;;;;;;27.05;18.15;;;;;;;;;;5050970;28;20128;-77
2022/08/18 04:27:26;;;;;;;19.00;13.88;;;;;;;;;;5052834;28;20090;-78
2022/08/18 04:29:55;;;;;;;24.60;16.42;;;;;;;;;;5050890;28;20139;-77
2022/08/18 04:32:21;;;;;;;26.77;16.35;;;;;;;;;;5034761;28;20037;-77
2022/08/18 04:34:48;;;;;;;25.90;17.95;;;;;;;;;;5034440;28;20044;-77
2022/08/18 04:37:14;;;;;;;27.10;18.20;;;;;;;;;;5034295;28;20060;-77
2022/08/18 04:39:40;;;;;;;26.75;16.30;;;;;;;;;;5050841;28;20040;-77
2022/08/18 04:42:07;;;;;;;28.30;17.70;;;;;;;;;;5051082;28;20083;-77
2022/08/18 04:44:34;;;;;;;26.88;15.40;;;;;;;;;;5050846;28;20048;-77
2022/08/18 04:47:01;;;;;;;24.05;16.83;;;;;;;;;;5066526;28;20167;-78
2022/08/18 04:49:27;;;;;;;27.08;16.55;;;;;;;;;;5050901;28;20544;-77
2022/08/18 04:54:39;;;;;;;22.00;15.40;;;;;;;;;;5050515;28;20044;-77
2022/08/18 04:57:07;;;;;;;23.55;15.65;;;;;;;;;;5050317;28;20492;-77
2022/08/18 04:59:33;;;;;;;22.02;15.57;;;;;;;;;;5034138;28;20060;-77
2022/08/18 05:02:00;;;;;;;20.50;14.88;;;;;;;;;;5048841;28;20041;-77
2022/08/18 05:04:28;;;;;;;25.35;15.95;;;;;;;;;;5033519;28;20090;-78
2022/08/18 05:06:54;;;;;;;21.65;15.35;;;;;;;;;;5032501;28;20485;-77
2022/08/18 05:09:20;;;;;;;23.55;14.60;;;;;;;;;;5050338;28;20493;-77
2022/08/18 05:11:46;;;;;;;22.98;15.77;;;;;;;;;;5050594;28;20041;-77
2022/08/18 05:14:12;;;;;;;27.45;15.80;;;;;;;;;;5050517;28;20044;-77
2022/08/18 05:16:38;;;;;;;23.50;15.10;;;;;;;;;;5050464;28;20107;-77
2022/08/18 05:19:10;;;;;;;28.10;15.30;;;;;;;;;;5051552;28;20059;-78
2022/08/18 05:21:36;;;;;;;24.63;15.00;;;;;;;;;;5067302;28;20119;-77
2022/08/18 05:24:03;;;;;;;25.08;16.48;;;;;;;;;;5050653;28;20375;-77
2022/08/18 05:26:30;;;;;;;23.30;15.43;;;;;;;;;;5050645;28;21803;-77
2022/08/18 05:28:56;;;;;;;22.27;15.23;;;;;;;;;;5050769;28;20118;-78
2022/08/18 05:31:24;;;;;;;24.98;15.35;;;;;;;;;;5050153;28;20444;-77
2022/08/18 05:33:50;;;;;;;22.98;15.15;;;;;;;;;;5034298;28;20087;-77
2022/08/18 05:36:16;;;;;;;24.92;15.98;;;;;;;;;;5049798;28;20120;-77
2022/08/18 05:39:01;;;;;;;21.17;15.07;;;;;;;;;;5049935;28;20067;-77
2022/08/18 05:41:31;;;;;;;24.33;16.08;;;;;;;;;;5050715;28;20489;-77
2022/08/18 05:43:57;;;;;;;18.98;13.73;;;;;;;;;;5051189;28;20512;-78
2022/08/18 05:46:42;;;;;;;27.55;15.93;;;;;;;;;;5049708;28;20045;-78
2022/08/18 05:49:08;;;;;;;22.00;14.88;;;;;;;;;;5049324;28;20080;-78
2022/08/18 05:51:39;;;;;;;24.98;15.82;;;;;;;;;;5051257;28;20054;-77
2022/08/18 05:56:54;;;;;;;23.55;15.98;;;;;;;;;;5050323;28;20055;-78
2022/08/18 05:59:27;;;;;;;27.00;16.40;;;;;;;;;;5049288;28;20037;-78
2022/08/18 06:02:07;;;;;;;27.42;16.58;;;;;;;;;;5053563;28;20045;-78
2022/08/18 06:04:39;;;;;;;27.70;16.30;;;;;;;;;;5050562;28;20098;-77
2022/08/18 06:07:07;;;;;;;27.58;16.33;;;;;;;;;;5050952;28;20048;-78
2022/08/18 06:09:37;;;;;;;27.48;16.73;;;;;;;;;;5037205;28;20044;-77
2022/08/18 06:12:12;;;;;;;22.83;15.38;;;;;;;;;;5053506;28;20504;-78
2022/08/18 06:14:40;;;;;;;25.80;16.70;;;;;;;;;;5053467;28;20105;-77
2022/08/18 06:17:20;;;;;;;22.80;16.38;;;;;;;;;;5039904;28;20052;-77
2022/08/18 06:19:46;;;;;;;18.48;12.82;;;;;;;;;;5054548;28;20049;-78
2022/08/18 06:22:18;;;;;;;22.52;12.63;;;;;;;;;;5052682;28;20041;-78
2022/08/18 06:24:49;;;;;;;13.57;11.07;;;;;;;;;;5052641;28;20885;-79
2022/08/18 06:27:18;;;;;;;17.50;11.88;;;;;;;;;;5052648;28;20037;-79
2022/08/18 06:30:04;;;;;;;20.02;12.73;;;;;;;;;;5053845;28;20488;-79
2022/08/18 06:32:40;;;;;;;18.50;10.15;;;;;;;;;;5044622;28;20397;-79
2022/08/18 06:35:07;;;;;;;11.80;8.55;;;;;;;;;;5058363;28;20053;-80
2022/08/18 06:38:37;;;;;;;13.15;8.93;;;;;;;;;;5046087;28;20041;-79
2022/08/18 06:40:28;;;;;;;13.15;7.40;;;;;;;;;;5059786;28;20213;-79
2022/08/18 06:42:54;;;;;;;10.93;7.78;;;;;;;;;;5043189;28;20036;-79
2022/08/18 06:45:24;;;;;;;13.32;8.80;;;;;;;;;;5052079;28;20119;-79
2022/08/18 06:48:00;;;;;;;13.35;8.00;;;;;;;;;;5051875;28;20061;-79
2022/08/18 06:50:30;;;;;;;14.80;8.68;;;;;;;;;;5041486;28;20049;-79
2022/08/18 06:53:06;;;;;;;13.68;8.00;;;;;;;;;;5044656;28;20045;-79
2022/08/18 06:55:32;;;;;;;17.17;9.07;;;;;;;;;;5042920;28;20037;-79
2022/08/18 06:57:59;;;;;;;10.73;7.28;;;;;;;;;;5064087;28;20037;-79
2022/08/18 07:00:28;;;;;;;10.93;6.35;;;;;;;;;;5039984;28;20037;-80
2022/08/18 07:03:06;;;;;;;10.00;5.30;;;;;;;;;;5039242;28;20049;-79
2022/08/18 07:05:33;;;;;;;8.52;5.90;;;;;;;;;;5043483;28;20544;-79
2022/08/18 07:08:03;;;;;;;10.05;5.28;;;;;;;;;;5049172;28;20115;-79
2022/08/18 07:10:31;;;;;;;12.50;5.68;;;;;;;;;;5046100;28;20124;-79
2022/08/18 07:13:08;;;;;;;9.82;5.55;;;;;;;;;;5045818;28;20120;-79
2022/08/18 07:15:35;;;;;;;9.20;4.50;;;;;;;;;;5049063;28;20501;-79
2022/08/18 07:18:06;;;;;;;9.38;5.13;;;;;;;;;;5041181;28;20042;-78
2022/08/18 07:20:40;;;;;;;16.70;4.70;;;;;;;;;;5045730;28;20608;-79
2022/08/18 07:23:07;;;;;;;8.45;4.40;;;;;;;;;;5049896;28;20573;-79
2022/08/18 07:25:38;;;;;;;9.27;4.03;;;;;;;;;;5051693;28;20106;-79
2022/08/18 07:28:04;;;;;;;10.30;4.13;;;;;;;;;;5046042;28;20083;-79
2022/08/18 07:30:32;;;;;;;9.63;4.10;;;;;;;;;;5031602;28;20128;-76
2022/08/18 07:33:04;;;;;;;9.13;4.28;;;;;;;;;;5040612;28;20052;-80
2022/08/18 07:35:40;;;;;;;8.77;4.60;;;;;;;;;;5040559;28;20700;-78
2022/08/18 07:38:16;;;;;;;9.23;4.38;;;;;;;;;;5038375;28;20043;-79
2022/08/18 07:40:50;;;;;;;9.43;3.80;;;;;;;;;;5042595;28;20037;-79
2022/08/18 07:43:26;;;;;;;8.00;3.60;;;;;;;;;;5050566;28;20037;-79
2022/08/18 07:45:55;;;;;;;10.80;4.03;;;;;;;;;;5044471;28;20045;-79
2022/08/18 07:48:32;;;;;;;7.82;3.40;;;;;;;;;;5039511;28;20570;-79
2022/08/18 07:51:03;;;;;;;9.13;3.90;;;;;;;;;;5041285;28;20057;-79
2022/08/18 07:53:35;;;;;;;12.80;4.13;;;;;;;;;;5042600;28;20055;-77
2022/08/18 07:56:04;;;;;;;7.43;3.67;;;;;;;;;;5036743;28;20073;-77
2022/08/18 07:58:34;;;;;;;9.05;4.32;;;;;;;;;;5039272;28;20036;-77
2022/08/18 08:01:03;;;;;;;10.90;4.22;;;;;;;;;;5040937;28;20041;-77
2022/08/18 08:03:33;;;;;;;10.38;4.00;;;;;;;;;;5025095;28;20090;-77
2022/08/18 08:06:17;;;;;;;10.32;4.80;;;;;;;;;;5037346;28;20052;-77
2022/08/18 08:08:48;;;;;;;9.32;3.13;;;;;;;;;;5040225;28;20527;-77
2022/08/18 08:11:28;;;;;;;6.65;2.95;;;;;;;;;;5041344;28;20147;-77
2022/08/18 08:14:05;;;;;;;5.75;2.70;;;;;;;;;;5033623;28;20473;-78
2022/08/18 08:16:43;;;;;;;5.20;2.63;;;;;;;;;;5049163;28;20064;-77
2022/08/18 08:19:12;;;;;;;6.72;2.80;;;;;;;;;;5048752;28;20044;-77
2022/08/18 08:21:43;;;;;;;8.45;2.63;;;;;;;;;;5043986;28;20124;-77
2022/08/18 08:24:13;;;;;;;4.88;2.40;;;;;;;;;;5053553;28;20124;-77
2022/08/18 08:26:46;;;;;;;5.35;2.83;;;;;;;;;;5067312;28;20485;-77
2022/08/18 08:29:28;;;;;;;5.57;2.30;;;;;;;;;;5029222;28;20079;-77
2022/08/18 08:32:00;;;;;;;5.05;2.25;;;;;;;;;;5061213;28;20041;-77
2022/08/18 08:34:26;;;;;;;5.07;2.47;;;;;;;;;;5051212;28;20431;-76
2022/08/18 08:37:01;;;;;;;4.95;2.67;;;;;;;;;;5051436;28;20045;-77
2022/08/18 08:39:33;;;;;;;5.75;2.50;;;;;;;;;;5050850;28;20543;-77
2022/08/18 08:42:05;;;;;;;5.90;2.30;;;;;;;;;;5050983;28;20049;-76
2022/08/18 08:44:50;;;;;;;4.65;2.35;;;;;;;;;;5050411;28;20087;-77
2022/08/18 08:47:21;;;;;;;6.43;2.40;;;;;;;;;;5038659;28;20551;-77
2022/08/18 08:49:50;;;;;;;4.90;2.25;;;;;;;;;;5050786;28;20284;-77
2022/08/18 08:52:19;;;;;;;3.75;1.75;;;;;;;;;;5034396;28;20041;-78
2022/08/18 08:55:12;;;;;;;4.93;1.88;;;;;;;;;;5050620;28;20072;-77
2022/08/18 08:57:46;;;;;;;4.88;1.77;;;;;;;;;;5042640;28;20123;-78
2022/08/18 09:00:14;;;;;;;3.88;1.45;;;;;;;;;;5034103;28;20079;-79
2022/08/18 09:02:52;;;;;;;4.25;1.67;;;;;;;;;;5050465;28;20049;-78
2022/08/18 09:05:18;;;;;;;2.65;1.33;;;;;;;;;;5034048;28;20068;-79
2022/08/18 09:08:03;;;;;;;3.53;1.23;;;;;;;;;;5050870;28;20041;-78
2022/08/18 09:10:48;;;;;;;2.30;1.00;;;;;;;;;;5049987;28;20120;-79
2022/08/18 09:13:17;;;;;;;2.90;1.10;;;;;;;;;;5058963;28;20049;-79
2022/08/18 09:15:50;;;;;;;4.63;0.90;;;;;;;;;;5050138;28;20095;-79
2022/08/18 09:18:25;;;;;;;3.92;1.10;;;;;;;;;;5046413;28;20083;-78
2022/08/18 09:21:10;;;;;;;2.55;1.00;;;;;;;;;;5060122;28;20044;-79
2022/08/18 09:23:42;;;;;;;3.28;1.17;;;;;;;;;;5045733;28;20699;-78
2022/08/18 09:26:23;;;;;;;2.08;0.90;;;;;;;;;;5037202;28;20122;-78
2022/08/18 09:28:57;;;;;;;3.13;0.95;;;;;;;;;;5051489;28;20045;-79
2022/08/18 09:31:24;;;;;;;2.58;0.90;;;;;;;;;;5038252;28;20451;-78
2022/08/18 09:34:00;;;;;;;1.88;0.70;;;;;;;;;;5039161;28;20045;-79
2022/08/18 09:36:45;;;;;;;2.13;0.80;;;;;;;;;;5028413;28;20037;-79
2022/08/18 09:41:59;;;;;;;3.07;0.60;;;;;;;;;;5032604;28;19917;-79
2022/08/18 09:44:41;;;;;;;1.58;0.70;;;;;;;;;;5038710;28;20044;-79
2022/08/18 09:47:07;;;;;;;1.75;0.70;;;;;;;;;;5035567;28;20060;-78
2022/08/18 09:49:42;;;;;;;1.40;0.75;;;;;;;;;;5035215;28;20041;-79
2022/08/18 09:52:25;;;;;;;2.85;1.10;;;;;;;;;;5047854;28;20037;-78
2022/08/18 09:55:26;;;;;;;2.20;0.90;;;;;;;;;;5035846;28;20124;-78
2022/08/18 09:58:11;;;;;;;2.92;0.80;;;;;;;;;;5002582;28;20119;-78
2022/08/18 10:00:37;;;;;;;2.60;0.90;;;;;;;;;;5024845;28;20199;-78
2022/08/18 10:03:10;;;;;;;2.15;0.95;;;;;;;;;;5045146;28;20056;-79
2022/08/18 10:05:36;;;;;;;1.60;0.80;;;;;;;;;;5042353;28;20059;-77
2022/08/18 10:08:02;;;;;;;5.10;1.10;;;;;;;;;;5035478;28;20497;-78
2022/08/18 10:10:28;;;;;;;4.05;1.00;;;;;;;;;;5036769;28;20812;-77
2022/08/18 10:12:57;;;;;;;2.28;1.10;;;;;;;;;;5053294;28;20048;-76
2022/08/18 10:15:34;;;;;;;3.42;1.00;;;;;;;;;;5060401;28;20064;-76
2022/08/18 10:18:08;;;;;;;2.45;1.00;;;;;;;;;;5054105;28;20037;-76
2022/08/18 10:20:34;;;;;;;5.07;1.35;;;;;;;;;;5053589;28;20547;-76
2022/08/18 10:23:00;;;;;;;2.90;0.95;;;;;;;;;;5054138;28;20482;-76
2022/08/18 10:25:38;;;;;;;3.47;1.20;;;;;;;;;;5053387;28;20135;-76
2022/08/18 10:28:05;;;;;;;3.78;1.00;;;;;;;;;;5053530;28;20048;-77
2022/08/18 10:30:35;;;;;;;3.45;1.25;;;;;;;;;;5053222;28;20384;-77
2022/08/18 10:33:06;;;;;;;5.07;1.25;;;;;;;;;;5035805;28;20040;-76
2022/08/18 10:35:35;;;;;;;5.40;1.60;;;;;;;;;;5038610;28;20034;-77
2022/08/18 10:38:09;;;;;;;4.35;1.40;;;;;;;;;;5042653;28;20042;-76
2022/08/18 10:40:36;;;;;;;5.30;1.40;;;;;;;;;;5034560;28;20116;-76
2022/08/18 10:43:19;;;;;;;3.95;1.40;;;;;;;;;;5036057;28;20045;-76
2022/08/18 10:45:51;;;;;;;3.50;1.38;;;;;;;;;;5043716;28;20106;-77
2022/08/18 10:48:17;;;;;;;4.22;1.70;;;;;;;;;;5049590;28;20053;-77
2022/08/18 10:50:53;;;;;;;3.78;1.52;;;;;;;;;;5048899;28;20090;-76
2022/08/18 10:53:29;;;;;;;2.85;1.30;;;;;;;;;;5028830;28;20040;-76
2022/08/18 10:55:58;;;;;;;3.03;1.33;;;;;;;;;;5056112;28;20052;-76
2022/08/18 10:58:36;;;;;;;3.88;1.50;;;;;;;;;;5043830;28;20043;-76
2022/08/18 11:01:07;;;;;;;3.60;1.50;;;;;;;;;;5047672;28;20128;-76
2022/08/18 11:03:42;;;;;;;3.97;1.50;;;;;;;;;;5044050;28;20490;-76
2022/08/18 11:06:13;;;;;;;3.80;1.60;;;;;;;;;;5039874;28;20132;-76
2022/08/18 11:08:44;;;;;;;3.90;1.52;;;;;;;;;;5042167;28;20033;-77
2022/08/18 11:11:11;;;;;;;4.25;1.42;;;;;;;;;;5038939;28;20051;-76
2022/08/18 11:13:41;;;;;;;3.08;1.42;;;;;;;;;;5051953;28;20036;-76
2022/08/18 11:16:15;;;;;;;3.40;1.48;;;;;;;;;;5042514;28;20060;-77
2022/08/18 11:18:41;;;;;;;4.43;1.38;;;;;;;;;;5028062;28;20090;-77
2022/08/18 11:21:25;;;;;;;2.80;1.10;;;;;;;;;;5043608;28;20383;-77
2022/08/18 11:24:04;;;;;;;3.33;1.50;;;;;;;;;;5043874;28;20044;-77
2022/08/18 11:26:31;;;;;;;2.90;1.40;;;;;;;;;;5052353;28;20466;-77
2022/08/18 11:28:57;;;;;;;4.53;1.52;;;;;;;;;;5051548;28;20045;-77
2022/08/18 11:31:23;;;;;;;3.95;1.25;;;;;;;;;;5052014;28;21465;-77
2022/08/18 11:33:49;;;;;;;4.78;1.50;;;;;;;;;;5035057;28;20045;-77
2022/08/18 11:36:15;;;;;;;1.92;1.35;;;;;;;;;;5051284;28;20044;-77
2022/08/18 11:38:53;;;;;;;3.30;1.60;;;;;;;;;;5051198;28;20040;-77
2022/08/18 11:41:24;;;;;;;4.03;1.50;;;;;;;;;;5051964;28;20691;-77
2022/08/18 11:43:55;;;;;;;3.85;1.90;;;;;;;;;;5051417;28;20079;-76
2022/08/18 11:46:24;;;;;;;5.38;1.85;;;;;;;;;;5051563;28;20056;-77
2022/08/18 11:48:51;;;;;;;5.40;1.60;;;;;;;;;;5033446;28;20569;-77
2022/08/18 11:51:24;;;;;;;4.07;1.65;;;;;;;;;;5051454;28;20110;-76
2022/08/18 11:53:53;;;;;;;5.03;1.50;;;;;;;;;;5051742;28;20044;-76
2022/08/18 11:56:19;;;;;;;2.30;1.30;;;;;;;;;;5051463;28;20040;-76
2022/08/18 11:58:52;;;;;;;4.07;1.60;;;;;;;;;;5051093;28;20043;-76
2022/08/18 12:01:29;;;;;;;4.32;1.20;;;;;;;;;;5035034;28;20041;-77
2022/08/18 12:03:56;;;;;;;2.63;1.50;;;;;;;;;;5050964;28;20159;-76
2022/08/18 12:06:30;;;;;;;2.75;1.27;;;;;;;;;;5051040;28;20053;-76
2022/08/18 12:09:05;;;;;;;2.53;1.30;;;;;;;;;;5050927;28;20047;-73
2022/08/18 12:11:33;;;;;;;2.42;1.30;;;;;;;;;;5051332;28;20524;-75
2022/08/18 12:14:04;;;;;;;3.53;1.40;;;;;;;;;;5050957;28;20040;-76
2022/08/18 12:16:41;;;;;;;2.50;1.40;;;;;;;;;;5050741;28;20032;-77
2022/08/18 12:19:09;;;;;;;2.25;1.20;;;;;;;;;;5034515;28;20037;-77
2022/08/18 12:21:40;;;;;;;2.35;1.30;;;;;;;;;;5066334;28;20507;-77
2022/08/18 12:24:09;;;;;;;2.67;1.30;;;;;;;;;;5050589;28;20040;-76
2022/08/18 12:26:35;;;;;;;3.25;1.40;;;;;;;;;;5067433;28;20128;-77
2022/08/18 12:29:01;;;;;;;2.60;1.40;;;;;;;;;;5050938;28;20540;-78
2022/08/18 12:31:28;;;;;;;4.10;1.40;;;;;;;;;;5018308;28;20504;-77
2022/08/18 12:33:54;;;;;;;3.03;1.60;;;;;;;;;;5034152;28;20154;-77
2022/08/18 12:36:20;;;;;;;2.75;1.38;;;;;;;;;;5050925;28;20468;-77
2022/08/18 12:38:46;;;;;;;2.45;1.40;;;;;;;;;;5050033;28;20041;-77
2022/08/18 12:41:14;;;;;;;2.63;1.30;;;;;;;;;;5050698;28;20045;-76
2022/08/18 12:43:40;;;;;;;3.60;1.50;;;;;;;;;;5028081;28;20048;-77
2022/08/18 12:46:06;;;;;;;2.97;1.50;;;;;;;;;;5049574;28;20053;-76
2022/08/18 12:48:33;;;;;;;3.25;1.42;;;;;;;;;;5049676;28;20052;-77
2022/08/18 12:50:59;;;;;;;2.83;1.38;;;;;;;;;;5049579;28;20076;-77
2022/08/18 12:53:25;;;;;;;3.88;1.70;;;;;;;;;;5049761;28;20059;-77
2022/08/18 12:55:51;;;;;;;3.00;1.50;;;;;;;;;;5049731;28;20037;-76
2022/08/18 12:58:17;;;;;;;2.28;1.20;;;;;;;;;;5033071;28;20041;-76
2022/08/18 13:00:43;;;;;;;2.60;1.40;;;;;;;;;;5050245;28;20079;-77
2022/08/18 13:03:09;;;;;;;1.88;1.30;;;;;;;;;;5014161;28;20060;-76
2022/08/18 13:05:36;;;;;;;3.85;1.60;;;;;;;;;;5031979;28;20036;-76
2022/08/18 13:08:03;;;;;;;2.28;1.35;;;;;;;;;;5066401;28;20098;-76
2022/08/18 13:10:29;;;;;;;2.30;1.30;;;;;;;;;;5050481;28;20068;-76
2022/08/18 13:12:56;;;;;;;2.15;1.35;;;;;;;;;;5049195;28;20047;-75
2022/08/18 13:15:23;;;;;;;3.28;1.35;;;;;;;;;;5051893;28;20047;-76
2022/08/18 13:17:49;;;;;;;3.13;1.35;;;;;;;;;;5050628;28;20049;-77
2022/08/18 13:20:15;;;;;;;1.95;1.25;;;;;;;;;;5034765;28;20044;-79
2022/08/18 13:22:42;;;;;;;3.13;1.33;;;;;;;;;;5050545;28;20087;-75
2022/08/18 13:25:13;;;;;;;3.35;1.30;;;;;;;;;;5051649;28;20082;-76
2022/08/18 13:27:39;;;;;;;2.90;1.40;;;;;;;;;;5034232;28;20087;-76
2022/08/18 13:30:08;;;;;;;3.03;1.58;;;;;;;;;;5033913;28;20045;-76
2022/08/18 13:32:34;;;;;;;2.35;1.40;;;;;;;;;;5050279;28;20071;-76
2022/08/18 13:35:00;;;;;;;3.38;1.40;;;;;;;;;;5050158;28;20461;-76
2022/08/18 13:37:29;;;;;;;2.22;1.50;;;;;;;;;;5067393;28;20044;-76
2022/08/18 13:39:55;;;;;;;2.45;1.42;;;;;;;;;;5050687;28;20076;-76
2022/08/18 13:42:21;;;;;;;3.92;1.20;;;;;;;;;;5050629;28;20041;-76
2022/08/18 13:44:48;;;;;;;4.03;1.40;;;;;;;;;;5050609;28;20041;-76
2022/08/18 13:47:14;;;;;;;3.28;1.40;;;;;;;;;;5050965;28;20128;-76
2022/08/18 13:49:40;;;;;;;3.70;1.60;;;;;;;;;;5034069;28;20041;-77
2022/08/18 13:52:06;;;;;;;3.40;1.50;;;;;;;;;;5051174;28;20029;-77
2022/08/18 13:54:34;;;;;;;2.63;1.60;;;;;;;;;;5049933;28;20048;-76
2022/08/18 13:57:01;;;;;;;2.00;1.40;;;;;;;;;;5049628;28;20045;-76
2022/08/18 13:59:31;;;;;;;1.90;1.38;;;;;;;;;;5033853;28;20045;-77
2022/08/18 14:01:58;;;;;;;3.72;1.48;;;;;;;;;;5049969;28;20055;-77
2022/08/18 14:04:24;;;;;;;2.47;1.67;;;;;;;;;;5050410;28;20378;-77
2022/08/18 14:06:51;;;;;;;3.63;1.75;;;;;;;;;;5033525;28;20485;-77
2022/08/18 14:09:17;;;;;;;3.30;1.50;;;;;;;;;;5049723;28;20053;-77
2022/08/18 14:11:43;;;;;;;3.33;1.60;;;;;;;;;;5033854;28;20414;-77
2022/08/18 14:14:09;;;;;;;2.45;1.40;;;;;;;;;;5017026;28;20029;-77
2022/08/18 14:16:35;;;;;;;2.80;1.60;;;;;;;;;;5034207;28;20041;-77
2022/08/18 14:27:30;;;;;;;2.25;1.38;;;;;;;;;;5049766;28;20072;-76
2022/08/18 14:29:56;;;;;;;2.17;1.40;;;;;;;;;;5069358;28;20040;-77
2022/08/18 14:32:23;;;;;;;3.00;1.60;;;;;;;;;;5053269;28;20073;-76
2022/08/18 14:34:49;;;;;;;3.30;1.40;;;;;;;;;;5037258;28;20073;-77
2022/08/18 14:37:15;;;;;;;3.88;1.42;;;;;;;;;;5053220;28;20110;-76
2022/08/18 14:39:42;;;;;;;2.55;1.35;;;;;;;;;;5053461;28;20441;-76
2022/08/18 14:42:08;;;;;;;3.60;1.58;;;;;;;;;;5052630;28;20041;-76
2022/08/18 14:44:34;;;;;;;2.08;1.23;;;;;;;;;;5053649;28;20498;-76
2022/08/18 14:47:00;;;;;;;1.95;1.30;;;;;;;;;;5036364;28;20056;-76
2022/08/18 14:49:28;;;;;;;2.80;1.50;;;;;;;;;;5053010;28;20045;-76
2022/08/18 14:51:54;;;;;;;3.08;1.52;;;;;;;;;;5036042;28;20037;-76
2022/08/18 14:54:20;;;;;;;3.65;1.45;;;;;;;;;;5052935;28;20033;-77
2022/08/18 14:56:48;;;;;;;3.92;1.33;;;;;;;;;;5036462;28;20039;-76
2022/08/18 14:59:14;;;;;;;3.47;1.90;;;;;;;;;;5052774;28;20386;-77
2022/08/18 15:01:42;;;;;;;3.67;1.60;;;;;;;;;;5049514;28;20087;-77
2022/08/18 15:04:10;;;;;;;3.35;1.33;;;;;;;;;;5042226;28;20492;-76
2022/08/18 15:06:36;;;;;;;2.72;1.40;;;;;;;;;;5052892;28;20095;-75
2022/08/18 15:09:02;;;;;;;2.65;1.65;;;;;;;;;;5051835;28;20041;-75
2022/08/18 15:11:28;;;;;;;2.00;1.40;;;;;;;;;;5051352;28;20099;-75